Current Weather

Persian Gulf Airport

Persian Gulf Airport, Iran (OIBP)

Report from: Wednesday, September 28, 2022 8:00 AM UTC
Current time: Wednesday, September 28, 2022 8:39 AM UTC

Nearby weather
Weather history
Weather forecast

Temperature38.0°C (100.4°F)
Heat index42.4°C (108.2°F)
Dew point21.0°C (69.8°F)
Winds 4 kts (2.1 m/s, 4.6 mph) South (170°)
Visibility4.3 mi. (7 km)
Altimeter29.67 in.Hg (1005 mB)
Relative humidity38 %
Density altitude3,214 ft. (980 m)
Flight conditions Marginal Visual Meteorological Conditions
Raw dataOIBP 280800Z 17004KT 7000 NSC 38/21 Q1004 A2967
An error has occurred. This application may no longer respond until reloaded. Reload 🗙